createdAt,value
2022-11-19T00:02:08.711Z,-1.90
2022-11-19T00:04:38.581Z,-1.90
2022-11-19T00:07:06.989Z,-2.00
2022-11-19T00:09:35.468Z,-2.00
2022-11-19T00:12:21.476Z,-2.00
2022-11-19T00:14:49.883Z,-2.10
2022-11-19T00:17:18.294Z,-2.10
2022-11-19T00:19:48.095Z,-2.10
2022-11-19T00:22:16.489Z,-2.10
2022-11-19T00:24:45.048Z,-2.10
2022-11-19T00:27:13.435Z,-2.10
2022-11-19T00:29:41.918Z,-2.00
2022-11-19T00:32:10.306Z,-2.00
2022-11-19T00:34:38.722Z,-2.00
2022-11-19T00:37:08.451Z,-2.10
2022-11-19T00:39:36.856Z,-2.10
2022-11-19T00:42:05.554Z,-2.20
2022-11-19T00:44:37.220Z,-2.20
2022-11-19T00:47:06.270Z,-2.30
2022-11-19T00:49:35.037Z,-2.50
2022-11-19T00:52:03.735Z,-2.40
2022-11-19T00:54:33.566Z,-2.40
2022-11-19T00:57:02.088Z,-2.40
2022-11-19T00:59:30.502Z,-2.50
2022-11-19T01:01:58.929Z,-2.50
2022-11-19T01:04:27.886Z,-2.60
2022-11-19T01:06:56.404Z,-2.70
2022-11-19T01:09:25.161Z,-2.70
2022-11-19T01:11:55.098Z,-2.80
2022-11-19T01:14:23.746Z,-2.80
2022-11-19T01:16:52.173Z,-2.90
2022-11-19T01:19:22.047Z,-2.90
2022-11-19T01:21:50.670Z,-2.90
2022-11-19T01:24:20.065Z,-2.80
2022-11-19T01:26:48.502Z,-2.90
2022-11-19T01:29:18.524Z,-2.90
2022-11-19T01:31:47.101Z,-2.90
2022-11-19T01:34:15.529Z,-1.10
2022-11-19T01:36:43.904Z,-2.90
2022-11-19T01:39:12.305Z,-3.00
2022-11-19T01:41:40.712Z,-3.10
2022-11-19T01:44:43.149Z,-3.10
2022-11-19T01:47:12.990Z,-3.10
2022-11-19T01:49:41.501Z,-3.20
2022-11-19T01:52:10.304Z,-3.30
2022-11-19T01:54:45.556Z,-3.30
2022-11-19T01:57:19.031Z,-3.20
2022-11-19T01:59:52.641Z,-3.20
2022-11-19T02:02:23.572Z,-3.20
2022-11-19T02:04:53.820Z,-3.20
2022-11-19T02:07:29.025Z,-3.30
2022-11-19T02:09:59.783Z,-3.40
2022-11-19T02:12:46.286Z,-3.40
2022-11-19T02:15:33.193Z,-3.50
2022-11-19T02:18:36.434Z,-3.50
2022-11-19T02:21:19.610Z,-3.60
2022-11-19T02:24:24.145Z,-3.70
2022-11-19T02:27:36.454Z,-3.60
2022-11-19T02:30:13.188Z,-3.60
2022-11-19T02:32:54.352Z,-3.50
2022-11-19T02:35:37.054Z,-3.60
2022-11-19T02:38:18.407Z,-3.50
2022-11-19T02:40:56.793Z,-3.50
2022-11-19T02:43:36.785Z,-3.60
2022-11-19T02:46:14.532Z,-3.60
2022-11-19T02:48:51.225Z,-3.50
2022-11-19T02:51:20.036Z,-3.50
2022-11-19T02:53:48.912Z,-3.50
2022-11-19T02:56:51.323Z,-3.50
2022-11-19T02:59:43.598Z,-3.60
2022-11-19T03:02:33.692Z,-1.90
2022-11-19T03:05:04.350Z,-3.50
2022-11-19T03:07:32.890Z,-3.60
2022-11-19T03:10:05.928Z,-3.60
2022-11-19T03:12:49.335Z,-3.60
2022-11-19T03:15:54.463Z,-3.60
2022-11-19T03:18:34.078Z,-3.70
2022-11-19T03:21:10.978Z,-3.70
2022-11-19T03:23:44.067Z,-3.70
2022-11-19T03:26:26.340Z,-3.70
2022-11-19T03:28:57.450Z,-3.80
2022-11-19T03:31:30.104Z,-3.90
2022-11-19T03:34:05.142Z,-3.90
2022-11-19T03:36:39.543Z,-3.90
2022-11-19T03:39:14.908Z,-3.90
2022-11-19T03:41:47.668Z,-3.80
2022-11-19T03:44:25.141Z,-3.90
2022-11-19T03:46:59.441Z,-3.90
2022-11-19T03:49:34.625Z,-3.90
2022-11-19T03:52:10.444Z,-4.00
2022-11-19T03:54:40.300Z,-4.00
2022-11-19T03:57:13.682Z,-4.00
2022-11-19T03:59:42.251Z,-4.00
2022-11-19T04:02:12.639Z,-4.00
2022-11-19T04:04:42.748Z,-4.00
2022-11-19T04:07:14.601Z,-4.10
2022-11-19T04:09:44.160Z,-4.00
2022-11-19T04:12:18.421Z,-4.00
2022-11-19T04:14:47.704Z,-4.00
2022-11-19T04:17:18.302Z,-4.00
2022-11-19T04:19:48.206Z,-4.10
2022-11-19T04:22:16.598Z,-4.10
2022-11-19T04:24:44.999Z,-4.10
2022-11-19T04:27:13.448Z,-4.20
2022-11-19T04:29:41.894Z,-4.20
2022-11-19T04:32:10.479Z,-4.20
2022-11-19T04:34:39.018Z,-4.20
2022-11-19T04:37:08.925Z,-4.20
2022-11-19T04:39:37.445Z,-4.20
2022-11-19T04:42:06.081Z,-4.20
2022-11-19T04:44:34.510Z,-4.20
2022-11-19T04:47:02.966Z,-4.20
2022-11-19T04:49:31.366Z,-4.20
2022-11-19T04:51:59.757Z,-4.20
2022-11-19T04:54:29.514Z,-4.20
2022-11-19T04:56:59.026Z,-4.30
2022-11-19T04:59:27.448Z,-4.20
2022-11-19T05:01:56.066Z,-4.30
2022-11-19T05:04:24.578Z,-4.30
2022-11-19T05:06:52.967Z,-4.30
2022-11-19T05:09:21.787Z,-4.30
2022-11-19T05:11:51.795Z,-4.30
2022-11-19T05:14:20.178Z,-4.30
2022-11-19T05:16:49.129Z,-4.30
2022-11-19T05:19:18.868Z,-4.30
2022-11-19T05:21:47.510Z,-4.30
2022-11-19T05:24:15.935Z,-4.30
2022-11-19T05:26:44.329Z,-4.40
2022-11-19T05:29:14.089Z,-4.40
2022-11-19T05:31:42.497Z,-4.30
2022-11-19T05:34:10.931Z,-4.40
2022-11-19T05:36:39.315Z,-4.40
2022-11-19T05:39:07.806Z,-4.40
2022-11-19T05:41:37.219Z,-4.40
2022-11-19T05:44:06.504Z,-4.40
2022-11-19T05:46:36.245Z,-4.40
2022-11-19T05:49:04.786Z,-4.40
2022-11-19T05:51:34.167Z,-4.40
2022-11-19T05:54:02.692Z,-4.20
2022-11-19T05:56:31.569Z,-4.50
2022-11-19T05:59:01.005Z,-4.40
2022-11-19T06:01:31.280Z,-4.40
2022-11-19T06:04:01.113Z,-4.50
2022-11-19T06:06:29.575Z,-4.50
2022-11-19T06:08:58.020Z,-4.50
2022-11-19T06:11:44.285Z,-4.50
2022-11-19T06:14:12.704Z,-4.50
2022-11-19T06:16:41.256Z,-4.50
2022-11-19T06:19:11.172Z,-4.50
2022-11-19T06:21:39.619Z,-4.50
2022-11-19T06:24:08.463Z,-4.60
2022-11-19T06:26:37.857Z,-4.60
2022-11-19T06:29:07.407Z,-4.60
2022-11-19T06:31:36.062Z,-4.60
2022-11-19T06:34:04.551Z,-4.50
2022-11-19T06:36:39.060Z,-4.50
2022-11-19T06:39:09.898Z,-4.50
2022-11-19T06:41:39.337Z,-4.50
2022-11-19T06:44:07.743Z,-4.40
2022-11-19T06:46:36.244Z,-4.50
2022-11-19T06:49:05.757Z,-4.40
2022-11-19T06:51:35.621Z,-4.30
2022-11-19T06:54:04.129Z,-4.40
2022-11-19T06:56:32.525Z,-4.40
2022-11-19T06:59:00.896Z,-4.30
2022-11-19T07:01:29.307Z,-4.40
2022-11-19T07:03:57.722Z,-4.30
2022-11-19T07:06:26.124Z,-4.20
2022-11-19T07:08:55.840Z,-4.10
2022-11-19T07:11:27.239Z,-3.80
2022-11-19T07:14:00.062Z,-3.60
2022-11-19T07:16:31.409Z,-3.30
2022-11-19T07:19:01.963Z,-3.10
2022-11-19T07:21:31.756Z,-2.80
2022-11-19T07:24:04.520Z,-2.50
2022-11-19T07:26:34.987Z,-2.20
2022-11-19T07:29:05.345Z,-1.90
2022-11-19T07:31:34.722Z,-1.70
2022-11-19T07:34:03.229Z,-1.60
2022-11-19T07:36:31.619Z,-1.40
2022-11-19T07:39:01.757Z,-1.20
2022-11-19T07:41:48.342Z,-1.10
2022-11-19T07:44:16.793Z,-1.00
2022-11-19T07:46:45.516Z,-0.80
2022-11-19T07:49:14.030Z,-0.70
2022-11-19T07:51:42.571Z,-0.40
2022-11-19T07:54:14.181Z,-0.20
2022-11-19T07:56:42.884Z,0.10
2022-11-19T07:59:12.019Z,0.30
2022-11-19T08:01:40.518Z,0.60
2022-11-19T08:04:09.723Z,0.90
2022-11-19T08:06:38.479Z,1.20
2022-11-19T08:09:07.338Z,1.50
2022-11-19T08:11:37.075Z,1.80
2022-11-19T08:14:05.504Z,2.00
2022-11-19T08:16:52.508Z,2.20
2022-11-19T08:19:21.029Z,2.40
2022-11-19T08:21:49.694Z,2.70
2022-11-19T08:24:21.228Z,2.80
2022-11-19T08:26:51.777Z,3.00
2022-11-19T08:29:23.757Z,3.20
2022-11-19T08:31:52.589Z,3.40
2022-11-19T08:34:22.099Z,3.50
2022-11-19T08:36:50.899Z,3.80
2022-11-19T08:39:19.398Z,4.10
2022-11-19T08:42:05.591Z,4.20
2022-11-19T08:44:35.431Z,4.50
2022-11-19T08:47:05.014Z,4.20
2022-11-19T08:49:34.438Z,3.60
2022-11-19T08:52:02.838Z,3.00
2022-11-19T08:54:31.223Z,2.50
2022-11-19T08:56:59.746Z,2.50
2022-11-19T08:59:28.239Z,2.40
2022-11-19T09:01:58.072Z,2.50
2022-11-19T09:04:26.496Z,2.50
2022-11-19T09:06:54.983Z,2.40
2022-11-19T09:09:24.477Z,2.60
2022-11-19T09:11:52.844Z,2.80
2022-11-19T09:14:21.548Z,2.90
2022-11-19T09:16:50.247Z,3.20
2022-11-19T09:19:20.246Z,3.30
2022-11-19T09:21:49.329Z,3.00
2022-11-19T09:24:18.245Z,2.80
2022-11-19T09:26:52.481Z,3.00
2022-11-19T09:29:21.639Z,3.00
2022-11-19T09:31:50.036Z,3.00
2022-11-19T09:34:20.178Z,3.10
2022-11-19T09:36:48.752Z,2.90
2022-11-19T09:39:17.550Z,3.00
2022-11-19T09:41:53.568Z,3.00
2022-11-19T09:45:11.460Z,3.10
2022-11-19T09:48:16.888Z,3.10
2022-11-19T09:50:54.813Z,3.40
2022-11-19T09:53:24.360Z,3.40
2022-11-19T09:55:55.025Z,3.40
2022-11-19T09:58:31.771Z,3.40
2022-11-19T10:01:01.812Z,3.40
2022-11-19T10:03:33.978Z,3.40
2022-11-19T10:06:20.538Z,3.20
2022-11-19T10:09:26.979Z,3.20
2022-11-19T10:12:15.280Z,3.20
2022-11-19T10:15:09.922Z,3.40
2022-11-19T10:17:56.233Z,3.90
2022-11-19T10:20:57.395Z,4.20
2022-11-19T10:23:45.272Z,4.50
2022-11-19T10:26:17.536Z,4.60
2022-11-19T10:28:56.045Z,4.70
2022-11-19T10:31:34.095Z,4.80
2022-11-19T10:34:17.459Z,4.90
2022-11-19T10:36:55.849Z,5.20
2022-11-19T10:39:34.673Z,5.40
2022-11-19T10:42:18.955Z,5.40
2022-11-19T10:44:54.723Z,5.40
2022-11-19T10:47:33.105Z,5.30
2022-11-19T10:50:04.463Z,5.10
2022-11-19T10:52:40.994Z,4.70
2022-11-19T10:55:23.990Z,4.40
2022-11-19T10:58:06.657Z,4.00
2022-11-19T11:00:37.112Z,4.00
2022-11-19T11:03:12.108Z,3.70
2022-11-19T11:05:58.833Z,3.40
2022-11-19T11:08:27.220Z,3.30
2022-11-19T11:10:57.724Z,3.60
2022-11-19T11:13:57.563Z,3.50
2022-11-19T11:16:40.922Z,3.00
2022-11-19T11:19:15.465Z,2.50
2022-11-19T11:21:45.169Z,2.30
2022-11-19T11:24:14.962Z,2.20
2022-11-19T11:26:45.053Z,2.10
2022-11-19T11:29:28.161Z,2.20
2022-11-19T11:31:56.635Z,2.00
2022-11-19T11:34:34.460Z,2.10
2022-11-19T11:37:08.582Z,2.00
2022-11-19T11:39:43.870Z,1.70
2022-11-19T11:42:20.690Z,1.60
2022-11-19T11:44:54.879Z,1.90
2022-11-19T11:47:30.932Z,1.90
2022-11-19T11:50:09.574Z,1.80
2022-11-19T11:52:44.519Z,1.80
2022-11-19T11:55:17.019Z,1.90
2022-11-19T11:57:55.936Z,1.90
2022-11-19T12:00:37.420Z,1.90
2022-11-19T12:03:09.538Z,2.00
2022-11-19T12:06:05.358Z,2.00
2022-11-19T12:08:49.831Z,1.80
2022-11-19T12:11:28.375Z,1.50
2022-11-19T12:14:09.632Z,1.30
2022-11-19T12:17:02.211Z,1.20
2022-11-19T12:20:02.190Z,1.30
2022-11-19T12:22:53.489Z,1.30
2022-11-19T12:25:33.399Z,1.30
2022-11-19T12:28:28.965Z,1.20
2022-11-19T12:31:17.016Z,1.10
2022-11-19T12:34:09.334Z,1.10
2022-11-19T12:36:56.714Z,1.10
2022-11-19T12:39:44.502Z,1.10
2022-11-19T12:42:44.296Z,1.10
2022-11-19T12:45:26.638Z,1.20
2022-11-19T12:48:23.301Z,1.20
2022-11-19T12:51:00.585Z,1.30
2022-11-19T12:53:56.758Z,1.40
2022-11-19T12:56:43.138Z,1.30
2022-11-19T12:59:32.192Z,1.40
2022-11-19T13:02:08.905Z,1.40
2022-11-19T13:04:46.682Z,1.50
2022-11-19T13:07:23.006Z,1.40
2022-11-19T13:10:00.407Z,1.40
2022-11-19T13:12:38.516Z,1.40
2022-11-19T13:15:18.587Z,1.40
2022-11-19T13:17:52.276Z,1.30
2022-11-19T13:20:29.140Z,1.20
2022-11-19T13:23:04.166Z,1.30
2022-11-19T13:25:39.880Z,1.30
2022-11-19T13:28:23.502Z,1.30
2022-11-19T13:31:00.642Z,1.40
2022-11-19T13:33:41.214Z,1.40
2022-11-19T13:36:20.797Z,1.40
2022-11-19T13:38:56.150Z,1.50
2022-11-19T13:41:31.954Z,1.70
2022-11-19T13:44:18.673Z,1.70
2022-11-19T13:46:51.924Z,1.70
2022-11-19T13:49:28.773Z,1.60
2022-11-19T13:52:07.617Z,1.60
2022-11-19T13:54:39.927Z,1.60
2022-11-19T13:57:27.738Z,1.60
2022-11-19T14:00:04.643Z,1.70
2022-11-19T14:03:21.782Z,1.70
2022-11-19T14:06:20.797Z,1.80
2022-11-19T14:09:06.621Z,1.80
2022-11-19T14:12:11.747Z,1.80
2022-11-19T14:15:19.513Z,1.70
2022-11-19T14:18:16.369Z,1.60
2022-11-19T14:21:04.531Z,1.50
2022-11-19T14:24:03.579Z,1.30
2022-11-19T14:27:19.759Z,1.10
2022-11-19T14:30:01.483Z,1.00
2022-11-19T14:32:46.317Z,1.00
2022-11-19T14:35:39.858Z,0.90
2022-11-19T14:38:33.255Z,0.70
2022-11-19T14:41:15.380Z,0.50
2022-11-19T14:44:11.710Z,0.40
2022-11-19T14:46:44.163Z,0.40
2022-11-19T14:49:32.891Z,0.50
2022-11-19T14:52:02.759Z,0.40
2022-11-19T14:54:40.855Z,0.30
2022-11-19T14:57:25.590Z,0.30
2022-11-19T14:59:59.898Z,0.20
2022-11-19T15:02:36.214Z,0.10
2022-11-19T15:05:18.400Z,0.00
2022-11-19T15:07:55.912Z,0.00
2022-11-19T15:10:46.162Z,-0.10
2022-11-19T15:13:33.480Z,-0.20
2022-11-19T15:16:13.278Z,-0.30
2022-11-19T15:19:17.063Z,-0.40
2022-11-19T15:22:34.757Z,-0.40
2022-11-19T15:25:22.941Z,-0.40
2022-11-19T15:28:24.447Z,-0.50
2022-11-19T15:31:24.301Z,-0.60
2022-11-19T15:34:24.842Z,-0.80
2022-11-19T15:36:59.965Z,-0.70
2022-11-19T15:39:39.177Z,-0.80
2022-11-19T15:42:14.862Z,-0.80
2022-11-19T15:44:54.014Z,-0.80
2022-11-19T15:47:34.737Z,-0.90
2022-11-19T15:50:04.916Z,-0.90
2022-11-19T15:52:33.718Z,-1.00
2022-11-19T15:55:14.594Z,-1.00
2022-11-19T15:57:45.111Z,-1.10
2022-11-19T16:00:20.201Z,-1.10
2022-11-19T16:02:52.822Z,-1.20
2022-11-19T16:05:24.541Z,-1.20
2022-11-19T16:07:54.694Z,-1.20
2022-11-19T16:10:29.853Z,-1.30
2022-11-19T16:13:19.058Z,-1.30
2022-11-19T16:16:09.547Z,-1.30
2022-11-19T16:18:48.839Z,-1.30
2022-11-19T16:21:24.031Z,-1.40
2022-11-19T16:24:10.989Z,-1.50
2022-11-19T16:26:42.504Z,-1.50
2022-11-19T16:29:18.967Z,-1.50
2022-11-19T16:31:50.796Z,-1.50
2022-11-19T16:34:24.715Z,-1.50
2022-11-19T16:36:54.433Z,-1.60
2022-11-19T16:39:27.499Z,-1.60
2022-11-19T16:42:17.115Z,-1.60
2022-11-19T16:44:48.884Z,-1.50
2022-11-19T16:47:25.296Z,-1.60
2022-11-19T16:50:04.625Z,-1.60
2022-11-19T16:52:42.665Z,-1.60
2022-11-19T16:55:43.840Z,-1.60
2022-11-19T16:58:25.116Z,-1.60
2022-11-19T17:00:59.368Z,-1.60
2022-11-19T17:03:36.740Z,-1.60
2022-11-19T17:06:09.960Z,-1.60
2022-11-19T17:08:39.322Z,-1.70
2022-11-19T17:11:42.210Z,-1.60
2022-11-19T17:14:49.556Z,-1.50
2022-11-19T17:17:40.244Z,-1.60
2022-11-19T17:20:50.374Z,-1.60
2022-11-19T17:23:22.813Z,-1.60
2022-11-19T17:25:55.098Z,-1.60
2022-11-19T17:28:35.072Z,-1.60
2022-11-19T17:31:14.656Z,-1.70
2022-11-19T17:33:54.539Z,-1.70
2022-11-19T17:36:25.700Z,-1.70
2022-11-19T17:38:55.918Z,-1.80
2022-11-19T17:41:45.702Z,-1.80
2022-11-19T17:44:34.563Z,-1.80
2022-11-19T17:47:07.391Z,-1.90
2022-11-19T17:49:46.644Z,-1.90
2022-11-19T17:52:26.272Z,-1.90
2022-11-19T17:55:02.853Z,-1.90
2022-11-19T17:57:31.981Z,-1.90
2022-11-19T18:00:00.493Z,-1.80
2022-11-19T18:02:29.145Z,-1.80
2022-11-19T18:04:57.654Z,-1.80
2022-11-19T18:07:26.085Z,-1.90
2022-11-19T18:09:56.198Z,-1.90
2022-11-19T18:12:24.841Z,-1.90
2022-11-19T18:14:55.750Z,-2.00
2022-11-19T18:17:27.868Z,-2.00
2022-11-19T18:19:56.354Z,-2.10
2022-11-19T18:22:24.858Z,-2.10
2022-11-19T18:24:55.113Z,-2.00
2022-11-19T18:27:23.606Z,-2.00
2022-11-19T18:29:52.280Z,-2.20
2022-11-19T18:32:20.939Z,-2.20
2022-11-19T18:34:49.373Z,-2.10
2022-11-19T18:37:17.744Z,-2.00
2022-11-19T18:39:46.158Z,-2.00
2022-11-19T18:42:16.145Z,-2.10
2022-11-19T18:44:43.825Z,-2.10
2022-11-19T18:47:15.335Z,-2.20
2022-11-19T18:49:43.735Z,-2.20
2022-11-19T18:52:15.487Z,-2.20
2022-11-19T18:54:44.602Z,-2.10
2022-11-19T18:57:14.091Z,-2.10
2022-11-19T18:59:43.935Z,-2.20
2022-11-19T19:02:12.423Z,-2.20
2022-11-19T19:04:40.882Z,-2.20
2022-11-19T19:07:09.340Z,-2.20
2022-11-19T19:09:37.866Z,-2.10
2022-11-19T19:12:19.515Z,-2.10
2022-11-19T19:14:51.788Z,-2.00
2022-11-19T19:17:20.697Z,-1.90
2022-11-19T19:19:50.104Z,-1.80
2022-11-19T19:22:19.171Z,-1.80
2022-11-19T19:24:48.004Z,-1.80
2022-11-19T19:27:16.602Z,-1.80
2022-11-19T19:29:45.107Z,-1.90
2022-11-19T19:32:14.849Z,-1.80
2022-11-19T19:34:43.250Z,-1.90
2022-11-19T19:37:11.662Z,-1.80
2022-11-19T19:39:40.198Z,-1.80
2022-11-19T19:42:09.304Z,-1.80
2022-11-19T19:44:37.901Z,-1.80
2022-11-19T19:47:06.693Z,-1.70
2022-11-19T19:49:39.068Z,-1.70
2022-11-19T19:52:07.750Z,-1.70
2022-11-19T19:54:37.038Z,-1.60
2022-11-19T19:57:05.528Z,-1.60
2022-11-19T19:59:33.912Z,-1.70
2022-11-19T20:02:02.422Z,-1.70
2022-11-19T20:04:30.858Z,-1.80
2022-11-19T20:07:00.764Z,-1.80
2022-11-19T20:09:29.215Z,-1.80
2022-11-19T20:11:59.424Z,-1.70
2022-11-19T20:14:28.056Z,-1.70
2022-11-19T20:16:56.459Z,-1.70
2022-11-19T20:19:25.236Z,-1.80
2022-11-19T20:21:54.438Z,-1.90
2022-11-19T20:24:24.640Z,-1.90
2022-11-19T20:26:53.043Z,-2.00
2022-11-19T20:29:23.265Z,-2.00
2022-11-19T20:31:52.781Z,-2.00
2022-11-19T20:34:21.252Z,-2.00
2022-11-19T20:36:49.853Z,-2.00
2022-11-19T20:39:18.493Z,-2.00
2022-11-19T20:42:06.337Z,-2.00
2022-11-19T20:44:34.770Z,-2.00
2022-11-19T20:47:04.915Z,-2.10
2022-11-19T20:49:36.553Z,-2.10
2022-11-19T20:52:05.930Z,-2.10
2022-11-19T20:54:35.616Z,-2.10
2022-11-19T20:57:05.658Z,-2.10
2022-11-19T20:59:34.040Z,-2.30
2022-11-19T21:02:02.541Z,-2.30
2022-11-19T21:04:36.138Z,-2.40
2022-11-19T21:07:05.658Z,-2.40
2022-11-19T21:09:34.470Z,-2.00
2022-11-19T21:12:02.850Z,-2.40
2022-11-19T21:14:32.732Z,-2.40
2022-11-19T21:17:01.211Z,-2.40
2022-11-19T21:19:29.624Z,-2.50
2022-11-19T21:21:58.120Z,-2.40
2022-11-19T21:24:26.580Z,-2.40
2022-11-19T21:26:54.977Z,-2.50
2022-11-19T21:29:23.656Z,-2.50
2022-11-19T21:31:53.803Z,-2.50
2022-11-19T21:34:22.184Z,-2.50
2022-11-19T21:36:51.619Z,-2.50
2022-11-19T21:39:21.725Z,-2.50
2022-11-19T21:41:50.377Z,-2.40
2022-11-19T21:44:21.743Z,-2.50
2022-11-19T21:46:50.828Z,-2.50
2022-11-19T21:49:21.152Z,-2.50
2022-11-19T21:51:49.966Z,-2.50
2022-11-19T21:54:18.938Z,-2.50
2022-11-19T21:56:48.107Z,-2.50
2022-11-19T21:59:16.511Z,-2.60
2022-11-19T22:01:44.876Z,-2.60
2022-11-19T22:04:15.315Z,-2.60
2022-11-19T22:06:45.098Z,-2.60
2022-11-19T22:09:13.586Z,-2.60
2022-11-19T22:11:41.966Z,-2.70
2022-11-19T22:14:11.615Z,-2.70
2022-11-19T22:16:41.500Z,-2.70
2022-11-19T22:19:12.663Z,-2.80
2022-11-19T22:21:41.386Z,-2.80
2022-11-19T22:24:13.364Z,-2.80
2022-11-19T22:26:41.770Z,-2.80
2022-11-19T22:29:10.223Z,-2.80
2022-11-19T22:31:38.737Z,-2.80
2022-11-19T22:34:07.219Z,-2.80
2022-11-19T22:36:35.607Z,-2.80
2022-11-19T22:39:04.268Z,-2.80
2022-11-19T22:41:35.257Z,-2.80
2022-11-19T22:44:05.104Z,-2.90
2022-11-19T22:46:33.598Z,-2.80
2022-11-19T22:49:01.995Z,-2.80
2022-11-19T22:51:30.488Z,-2.80
2022-11-19T22:53:58.912Z,-2.80
2022-11-19T22:56:29.777Z,-2.80
2022-11-19T22:58:59.736Z,-2.30
2022-11-19T23:01:30.785Z,-2.80
2022-11-19T23:04:02.695Z,-2.80
2022-11-19T23:06:31.097Z,-2.80
2022-11-19T23:08:59.585Z,-2.80
2022-11-19T23:11:45.646Z,-2.80
2022-11-19T23:14:17.822Z,-2.80
2022-11-19T23:16:47.024Z,-2.80
2022-11-19T23:19:19.224Z,-2.80
2022-11-19T23:21:48.130Z,-2.80
2022-11-19T23:24:17.298Z,-2.80
2022-11-19T23:26:45.727Z,-2.70
2022-11-19T23:29:15.686Z,-2.70
2022-11-19T23:31:44.086Z,-2.70
2022-11-19T23:34:12.811Z,-2.70
2022-11-19T23:36:42.570Z,-2.70
2022-11-19T23:39:17.592Z,-2.80
2022-11-19T23:41:46.697Z,-2.80
2022-11-19T23:44:16.436Z,-2.80
2022-11-19T23:46:44.806Z,-2.80
2022-11-19T23:49:13.239Z,-2.80
2022-11-19T23:51:41.688Z,-2.80
2022-11-19T23:54:13.808Z,-2.90
2022-11-19T23:56:42.329Z,-2.90
2022-11-19T23:59:10.736Z,-2.90
